Nearby METAR Reports

 

KSHV - Shreveport, Louisiana, USA
Distance from station: NW 8mi, 13km
Updated: Tue, 25-Jun-2024 1:56pm CDT
Partly cloudy
Partly cloudy
 Wind from S
Wind: S 6 mph, 9 km/h, Gust: 17 mph, 28 km/h
Temperature: 97°F, 36°C
Heat Index: 110°F, 43°C
Dew Point: 75°F, 24°C
Humidity: 50%
Barometer: 29.94 inHg, 1013.9 hPa
Clouds: Partly cloudy
Visibility: 10 miles, 16 km
Cloud details: Partly cloudy 4200 ft
2024/06/25 18:56 KSHV 251856Z 17005G15KT 10SM SCT042 36/24 A2994 RMK SLPNO
KBAD - Barksdale Afb, Louisiana, USA
Distance from station: NNE 9mi, 14km
Updated: Tue, 25-Jun-2024 1:55pm CDT
Few Clouds
Few Clouds
 Wind from S
Wind: S 8 mph, 13 km/h
Temperature: 97°F, 36°C
Heat Index: 106°F, 41°C
Dew Point: 72°F, 22°C
Humidity: 44%
Barometer: 29.93 inHg, 1013.5 hPa
Clouds: Few Clouds
Visibility: 10 miles, 16 km
Cloud details: Few Clouds 4600 ft
2024/06/25 18:55 KBAD 251855Z AUTO 17007KT 10SM FEW046 36/22 A2993 RMK AO2 SLP137 T03560218
KDTN - Shreveport/Dwntn, Louisiana, USA
Distance from station: N 12mi, 19km
Updated: Tue, 25-Jun-2024 1:53pm CDT
Partly cloudy
Partly cloudy
 Wind from WSW
Wind: WSW 9 mph, 15 km/h
Temperature: 95°F, 35°C
Heat Index: 105°F, 41°C
Dew Point: 73°F, 23°C
Humidity: 50%
Barometer: 29.94 inHg, 1013.9 hPa
Clouds: Partly cloudy
Visibility: 10 miles, 16 km
Cloud details: Partly cloudy 5000 ft
2024/06/25 18:53 KDTN 251853Z 24008KT 10SM SCT050 35/23 A2994 RMK AO2 SLP135 T03500228
 
K3F3 - Mansfield, Louisiana, USA
Distance from station: S 22mi, 36km
Updated: Tue, 25-Jun-2024 1:55pm CDT
Partly cloudy
Partly cloudy
 Wind from S
Wind: S 10 mph, 17 km/h, Gust: 17 mph, 28 km/h
Temperature: 95°F, 35°C
Heat Index: 107°F, 42°C
Dew Point: 75°F, 24°C
Humidity: 53%
Barometer: 29.99 inHg, 1015.6 hPa
Clouds: Partly cloudy
Visibility: 10 miles, 16 km
Cloud details: Partly cloudy 4300 ft
Partly cloudy 5000 ft
Partly cloudy 7000 ft
2024/06/25 18:55 K3F3 251855Z AUTO 17009G15KT 10SM SCT043 SCT050 SCT070 35/24 A2999 RMK AO2 T03470241
KASL - Marshall, Texas, USA
Distance from station: WNW 35mi, 56km
Updated: Tue, 25-Jun-2024 1:55pm CDT
Partly cloudy
Partly cloudy
 Wind from S
Wind: S 10 mph, 17 km/h
Temperature: 93°F, 34°C
Heat Index: 107°F, 42°C
Dew Point: 77°F, 25°C
Humidity: 59%
Barometer: 29.93 inHg, 1013.5 hPa
Clouds: Partly cloudy
Visibility: 9 miles, 14 km
Cloud details: Partly cloudy 4300 ft
Partly cloudy 28000 ft
Partly cloudy 34000 ft
2024/06/25 18:55 KASL 251855Z AUTO 18009KT 9SM SCT043 SCT280 SCT340 34/25 A2993 RMK AO2 T03380252 $
KF17 - Center, Texas, USA
Distance from station: SSW 46mi, 73km
Updated: Tue, 25-Jun-2024 1:55pm CDT
Partly cloudy
Partly cloudy
 Wind from S
Wind: S 6 mph, 9 km/h
Temperature: 91°F, 33°C
Heat Index: 96°F, 36°C
Dew Point: 70°F, 21°C
Humidity: 49%
Barometer: 29.97 inHg, 1014.9 hPa
Clouds: Partly cloudy
Visibility: 10 miles, 16 km
Cloud details: Partly cloudy 4700 ft
2024/06/25 18:55 KF17 251855Z AUTO 18005KT 10SM SCT047 33/21 A2997 RMK AO2
 
KGGG - Longview, Texas, USA
Distance from station: W 58mi, 93km
Updated: Tue, 25-Jun-2024 1:53pm CDT
Mostly cloudy
Mostly cloudy
 
Temperature: 93°F, 34°C
Heat Index: 103°F, 39°C
Dew Point: 73°F, 23°C
Humidity: 53%
Barometer: 29.92 inHg, 1013.2 hPa
Clouds: Mostly cloudy
Visibility: 10 miles, 16 km
Cloud details: Partly cloudy 4500 ft
Mostly cloudy 5500 ft
2024/06/25 18:53 KGGG 251853Z 10SM SCT045 BKN055 34/23 A2992 RMK AO2 SLP123 T03390233
KIER - Natchitoches, Louisiana, USA
Distance from station: SE 58mi, 93km
Updated: Tue, 25-Jun-2024 1:55pm CDT
Partly cloudy
Partly cloudy
 Wind from SW
Wind: SW 6 mph, 9 km/h
Temperature: 99°F, 37°C
Heat Index: 113°F, 45°C
Dew Point: 75°F, 24°C
Humidity: 47%
Barometer: 29.95 inHg, 1014.2 hPa
Clouds: Partly cloudy
Visibility: 10 miles, 16 km
Cloud details: Partly cloudy 4400 ft
2024/06/25 18:55 KIER 251855Z AUTO 23005KT 10SM SCT044 37/24 A2995 RMK AO2 T03650237
KTXK - Texarkana, Arkansas, USA
Distance from station: NNW 75mi, 121km
Updated: Tue, 25-Jun-2024 1:53pm CDT
Partly cloudy
Partly cloudy
 Wind from SW
Wind: SW 9 mph, 15 km/h
Temperature: 99°F, 37°C
Heat Index: 110°F, 43°C
Dew Point: 73°F, 23°C
Humidity: 44%
Barometer: 29.93 inHg, 1013.5 hPa
Clouds: Partly cloudy
Visibility: 10 miles, 16 km
Cloud details: Partly cloudy 4500 ft
2024/06/25 18:53 KTXK 251853Z 22008KT 10SM SCT045 37/23 A2993 RMK AO2 SLP130 T03670228
 
KMCJ - Houston/Univ, Texas, USA
Distance from station: SSE 7mi, 11km
Updated: Tue, 25-Jun-2024 1:55pm CDT
Partly cloudy
Partly cloudy
 Wind from SE
Wind: SE 14 mph, 22 km/h
Temperature: 91°F, 33°C
Heat Index: 100°F, 38°C
Dew Point: 73°F, 23°C
Humidity: 56%
Barometer: 29.93 inHg, 1013.5 hPa
Clouds: Partly cloudy
Cloud details: Partly cloudy 4200 ft
Partly cloudy 5000 ft
Partly cloudy 6000 ft
2024/06/25 18:55 KMCJ 251855Z AUTO 14012KT SCT042 SCT050 SCT060 33/23 A2993 RMK A01
KIAH - Houston/Intnl, Texas, USA
Distance from station: NNE 14mi, 23km
Updated: Tue, 25-Jun-2024 1:53pm CDT
Partly cloudy
Partly cloudy
 Wind from SSE
Wind: SSE 12 mph, 19 km/h
Temperature: 93°F, 34°C
Heat Index: 105°F, 41°C
Dew Point: 75°F, 24°C
Humidity: 56%
Barometer: 29.93 inHg, 1013.5 hPa
Clouds: Partly cloudy
Visibility: 10 miles, 16 km
Cloud details: Partly cloudy 4000 ft
2024/06/25 18:53 KIAH 251853Z 16010KT 10SM SCT040 34/24 A2993 RMK AO2 SLP134 T03390239
KNEW - New Orleans/Lake, Louisiana, USA
Distance from station: NE 7mi, 11km
Updated: Tue, 25-Jun-2024 1:53pm CDT
Clear
Clear
 Wind from WNW
Wind: WNW 9 mph, 15 km/h
Temperature: 91°F, 33°C
Heat Index: 107°F, 42°C
Dew Point: 79°F, 26°C
Humidity: 67%
Barometer: 29.97 inHg, 1014.9 hPa
Clouds: Clear
Visibility: 10 miles, 16 km
2024/06/25 18:53 KNEW 251853Z 30008KT 10SM CLR 33/26 A2997 RMK AO2 SLP143 T03330256
 
KMSY - New Orleans/Intl, Louisiana, USA
Distance from station: WNW 9mi, 15km
Updated: Tue, 25-Jun-2024 1:53pm CDT
Mostly cloudy
Mostly cloudy
 Wind from WSW
Wind: WSW 9 mph, 15 km/h
Temperature: 90°F, 32°C
Heat Index: 107°F, 42°C
Dew Point: 79°F, 26°C
Humidity: 71%
Barometer: 29.97 inHg, 1014.9 hPa
Clouds: Mostly cloudy
Visibility: 10 miles, 16 km
Cloud details: Few Clouds 3300 ft
Mostly cloudy 4700 ft
Mostly cloudy 6000 ft
Mostly cloudy 15000 ft
Mostly cloudy 25000 ft
2024/06/25 18:53 KMSY 251853Z 25008KT 10SM FEW033 BKN047 BKN060 BKN150 BKN250 32/26 A2997 RMK AO2 SLP151 CB DSNT SE AND NW T03220256
Davis Instruments Weather-Display MidSouth Network Weather Underground ** ** PLEASE DESCRIBE THIS IMAGE ** Windy.com Citizen Weather Observer Program
Free counters!
Free counters!